Share

Eddyville, NE (68834)

11:34 PM CDT on April 23, 2014 (GMT -0500)
Kelly (KLXN) Elev 2411 ft | 40.79 °N, 99.78 °W | Change Station

Current weather conditions updated 19 minutes ago

Scattered Clouds
Scattered Clouds
62 °F
Feels Like 62 °F
N
21
Wind Variable Wind from North
Sunrise 6:47 AM
Sunset 8:27 PM
Moon Waning Crescent

Tomorrow is forecast to be Much Cooler than today.

Pressure 29.62 in
Visibility 10.0 miles
Clouds Scattered Clouds 8500 ft
Dew Point 40 °F
Humidity 44%
Rainfall 0.00 in
Snow Depth Not available.
UV 0 out of 16
Pollen 10.90 out of 12
Air Quality Not available.
Flu Activity Sporadic
METAR KLXN 240415Z AUTO 36018KT 10SM SCT085 17/04 A2962 RMK AO2 LTG DSNT E T01660043

More Conditions Fewer Conditions

Pressure 29.62 in
Visibility 10.0 miles
Clouds Scattered Clouds 8500 ft
Dew Point 40 °F
Humidity 44%
Rainfall 0.00 in
Snow Depth Not available.
UV 0 out of 16
Pollen 10.90 out of 12
Air Quality Not available.
Flu Activity Sporadic
METAR KLXN 240415Z AUTO 36018KT 10SM SCT085 17/04 A2962 RMK AO2 LTG DSNT E T01660043

More Conditions Fewer Conditions

10-Day Weather Forecast

Almanac

Astronomy

Apr. 23, 2014 Rise Set
Actual Time 6:47 AM CDT 8:27 PM CDT
Civil Twilight 6:18 AM CDT 8:56 PM CDT
Nautical Twilight 5:43 AM CDT 9:31 PM CDT
Astronomical Twilight 5:05 AM CDT 10:09 PM CDT
Moon 3:23 AM CDT (4/23) 2:34 PM CDT (4/23)
Length of Visible Light 14h 37m
Length of Day
13h 39m
Tomorrow will be 2m 30s longer.
Waning Crescent, 29% of the Moon is Illuminated
Apr 24
Waning Crescent
Apr 29
New
May 6
First Quarter
May 14
Full
May 21
Last Quarter

Yesterday's Extremes

State Highs State Lows

Community

  • Stacked
    Stacked
  • Balance
    Balance
  • Nestled In
    Nestled In
  • Stunning Sunrise
    Stunning Sunrise
  • spring flowers
    spring flowers

WunderPhotos

Upload Photos

1,704,560 photos uploaded!

WunderBlogs® & News

Nearby

Snow Depth

Station Depth Elevation
No new snow has been reported.

Coastal Water Temperatures

Place Temperature
No Stations Reporting

Earthquake Activity

City Distance Mag. Time & Date
No recent earthquake activity has been reported nearby.
Minimum magnitude displayed is 2.5.

Nearby Weather Stations

Station Location Temp. Dew Point Humidity Wind Precip. Elev Updated Type
MesoWest LEXNG1 , Lexington, NE 60 °F - - North  at  - 0.00 in / hr 2411 ft 10:00 PM CDT MADIS
MesoWest WILLO2 , Willow Island, NE 65 °F - - North  at  - 0.00 in / hr 2523 ft 10:00 PM CDT MADIS
Mallard Bay, Johnson Lake, NE 60.2 °F 40 °F 47% North  at  7.0 mph 0.00 in / hr 2623 ft 11:30 PM CDT Rapid Fire

Show More Stations Show Fewer Stations

What do you think?

We're not finished. Please let us know what you like, what you don't like, and what you are still missing.